Time;durP1;ratioP1;P1;durP2;ratioP2;P2;SDS_P1;SDS_P2;PMS_P1;PMS_P2;Temp;Humidity;BMP_temperature;BMP_pressure;BME280_temperature;BME280_humidity;BME280_pressure;Samples;Min_cycle;Max_cycle;Signal;HPM_P1;HPM_P2
2023/04/25 00:02:08;;;;;;;2.85;1.67;;;19.70;61.50;;;;;;5051931;28;20049;-29
2023/04/25 00:04:37;;;;;;;4.18;1.90;;;19.70;70.70;;;;;;5051537;28;20425;-29
2023/04/25 00:07:06;;;;;;;3.40;1.80;;;19.60;71.20;;;;;;5051691;28;20056;-29
2023/04/25 00:09:33;;;;;;;4.43;1.73;;;;;;;;;;5051235;28;20049;-30
2023/04/25 00:12:01;;;;;;;4.55;1.80;;;19.10;70.10;;;;;;5051777;28;20095;-29
2023/04/25 00:14:28;;;;;;;5.45;2.33;;;19.20;70.50;;;;;;5051657;28;20136;-30
2023/04/25 00:16:55;;;;;;;6.20;2.00;;;;;;;;;;5051353;28;20072;-30
2023/04/25 00:19:22;;;;;;;5.22;1.73;;;19.80;70.40;;;;;;5051334;28;20059;-29
2023/04/25 00:21:49;;;;;;;4.40;1.88;;;;;;;;;;5051341;28;20055;-31
2023/04/25 00:24:17;;;;;;;4.47;2.22;;;19.10;71.00;;;;;;5051440;28;20045;-29
2023/04/25 00:26:44;;;;;;;3.83;2.00;;;19.20;70.30;;;;;;5055741;28;20045;-29
2023/04/25 00:29:11;;;;;;;5.20;1.80;;;20.00;60.40;;;;;;5055395;28;20132;-29
2023/04/25 00:31:37;;;;;;;4.95;1.70;;;19.60;57.00;;;;;;5055467;28;20489;-30
2023/04/25 00:34:04;;;;;;;4.07;1.90;;;19.20;70.70;;;;;;5055564;28;20128;-30
2023/04/25 00:36:31;;;;;;;4.75;1.95;;;18.10;63.70;;;;;;5054723;28;20049;-29
2023/04/25 00:38:58;;;;;;;4.03;1.65;;;;;;;;;;5055108;28;20049;-30
2023/04/25 00:41:26;;;;;;;3.90;1.80;;;19.60;71.10;;;;;;5056080;28;20049;-29
2023/04/25 00:43:53;;;;;;;5.00;1.90;;;18.80;70.60;;;;;;5075226;28;20123;-29
2023/04/25 00:46:19;;;;;;;4.03;1.80;;;19.90;56.40;;;;;;5075260;28;20044;-29
2023/04/25 00:48:46;;;;;;;5.80;1.98;;;17.80;60.30;;;;;;5074927;28;20044;-29
2023/04/25 00:51:14;;;;;;;5.80;2.28;;;19.10;52.40;;;;;;5072862;28;20052;-29
2023/04/25 00:53:41;;;;;;;3.75;1.90;;;19.40;70.60;;;;;;5054958;28;20045;-29
2023/04/25 00:56:08;;;;;;;4.55;2.10;;;;;;;;;;5055336;28;20401;-29
2023/04/25 00:58:36;;;;;;;4.70;1.88;;;19.40;70.90;;;;;;5037004;28;20413;-30
2023/04/25 01:01:03;;;;;;;4.97;1.88;;;;;;;;;;5055045;28;20051;-29
2023/04/25 01:03:30;;;;;;;8.63;2.05;;;19.20;70.60;;;;;;5054729;28;20140;-29
2023/04/25 01:05:57;;;;;;;5.22;1.90;;;18.90;66.10;;;;;;5054598;28;20412;-29
2023/04/25 01:08:25;;;;;;;6.03;1.92;;;19.00;52.40;;;;;;5054814;28;20110;-29
2023/04/25 01:10:51;;;;;;;3.47;1.48;;;17.70;69.80;;;;;;5054886;28;20057;-29
2023/04/25 01:13:18;;;;;;;4.38;2.03;;;19.10;70.60;;;;;;5054601;28;20055;-29
2023/04/25 01:15:46;;;;;;;4.15;1.70;;;19.20;57.10;;;;;;5054408;28;20533;-30
2023/04/25 01:18:13;;;;;;;4.13;1.90;;;;;;;;;;5054300;28;20053;-32
2023/04/25 01:20:40;;;;;;;4.63;1.85;;;18.40;71.10;;;;;;5054506;28;20045;-30
2023/04/25 01:23:08;;;;;;;5.97;1.90;;;19.30;71.00;;;;;;5054298;28;20706;-29
2023/04/25 01:25:34;;;;;;;4.15;2.05;;;19.00;70.90;;;;;;5054536;28;20048;-29
2023/04/25 01:28:01;;;;;;;5.50;1.80;;;19.20;55.00;;;;;;5054381;28;20053;-30
2023/04/25 01:30:28;;;;;;;5.95;1.90;;;19.00;70.90;;;;;;5054263;28;20632;-29
2023/04/25 01:32:56;;;;;;;6.10;2.35;;;18.70;70.40;;;;;;5054585;28;20051;-29
2023/04/25 01:35:23;;;;;;;3.35;1.75;;;19.70;71.30;;;;;;5054408;28;20056;-29
2023/04/25 01:37:50;;;;;;;3.80;1.83;;;;;;;;;;5052617;28;20080;-29
2023/04/25 01:40:19;;;;;;;3.25;1.70;;;18.80;52.20;;;;;;5054535;28;20469;-30
2023/04/25 01:42:46;;;;;;;3.33;1.80;;;19.80;65.40;;;;;;5065990;28;20040;-29
2023/04/25 01:45:13;;;;;;;4.22;1.80;;;;;;;;;;5074153;28;20408;-29
2023/04/25 01:47:41;;;;;;;4.80;1.70;;;;;;;;;;5072200;28;20410;-30
2023/04/25 01:50:08;;;;;;;3.75;1.80;;;18.80;52.30;;;;;;5054114;28;20055;-30
2023/04/25 01:52:35;;;;;;;4.35;1.70;;;18.70;70.90;;;;;;5053828;28;20053;-29
2023/04/25 01:55:02;;;;;;;4.30;1.83;;;18.70;52.30;;;;;;5054092;28;20560;-30
2023/04/25 01:57:30;;;;;;;4.38;1.80;;;18.50;70.50;;;;;;5053769;28;20520;-29
2023/04/25 01:59:59;;;;;;;4.10;1.73;;;17.50;70.00;;;;;;5053785;28;20057;-29
2023/04/25 02:02:26;;;;;;;4.78;1.85;;;18.20;70.30;;;;;;5053735;28;20057;-29
2023/04/25 02:04:54;;;;;;;3.97;1.75;;;18.30;55.80;;;;;;5053774;28;20052;-29
2023/04/25 02:07:21;;;;;;;2.92;1.60;;;;;;;;;;5053757;28;20045;-30
2023/04/25 02:09:47;;;;;;;4.03;1.75;;;18.20;70.40;;;;;;5053632;28;20056;-29
2023/04/25 02:12:14;;;;;;;3.45;1.80;;;18.50;71.40;;;;;;5053354;28;20580;-29
2023/04/25 02:14:42;;;;;;;4.13;1.98;;;18.40;60.50;;;;;;5053073;28;20055;-29
2023/04/25 02:17:09;;;;;;;4.30;1.73;;;18.40;57.60;;;;;;5053479;28;20067;-30
2023/04/25 02:19:35;;;;;;;4.28;2.10;;;17.60;70.10;;;;;;5053639;28;20059;-29
2023/04/25 02:22:02;;;;;;;5.07;1.60;;;19.40;62.10;;;;;;5053315;28;20045;-29
2023/04/25 02:24:29;;;;;;;5.03;1.98;;;;;;;;;;5053400;28;20123;-30
2023/04/25 02:26:56;;;;;;;3.15;1.77;;;18.40;66.10;;;;;;5053185;28;20099;-29
2023/04/25 02:29:23;;;;;;;5.20;2.00;;;;;;;;;;5052939;28;20047;-30
2023/04/25 02:31:51;;;;;;;5.43;1.90;;;18.10;71.20;;;;;;5053206;28;20047;-29
2023/04/25 02:34:18;;;;;;;3.38;1.80;;;18.70;70.70;;;;;;5053003;28;20405;-30
2023/04/25 02:36:44;;;;;;;5.82;2.00;;;17.80;70.30;;;;;;5052397;28;20052;-29
2023/04/25 02:39:11;;;;;;;3.15;1.60;;;;;;;;;;5052974;28;20145;-29
2023/04/25 02:41:38;;;;;;;3.60;1.60;;;18.70;58.90;;;;;;5055762;28;20059;-29
2023/04/25 02:44:05;;;;;;;4.25;1.75;;;18.90;71.30;;;;;;5053761;28;20567;-29
2023/04/25 02:46:31;;;;;;;5.97;2.10;;;18.70;59.80;;;;;;5053100;28;20047;-29
2023/04/25 02:48:59;;;;;;;3.17;1.70;;;18.60;70.80;;;;;;5052590;28;20056;-29
2023/04/25 02:51:26;;;;;;;5.45;1.92;;;19.00;71.00;;;;;;5052889;28;20052;-29
2023/04/25 02:53:53;;;;;;;3.97;1.70;;;18.40;70.70;;;;;;5052560;28;20045;-29
2023/04/25 02:56:20;;;;;;;4.93;2.00;;;;;;;;;;5053105;28;20060;-30
2023/04/25 02:58:47;;;;;;;3.72;1.95;;;;;;;;;;5052689;28;20136;-30
2023/04/25 03:01:14;;;;;;;5.00;1.80;;;;;;;;;;5052968;28;20053;-30
2023/04/25 03:03:41;;;;;;;6.20;2.35;;;18.60;61.80;;;;;;5052393;28;20106;-29
2023/04/25 03:06:09;;;;;;;4.28;1.80;;;18.30;52.10;;;;;;5052459;28;20047;-30
2023/04/25 03:08:36;;;;;;;3.70;1.73;;;;;;;;;;5052415;28;20076;-29
2023/04/25 03:11:03;;;;;;;3.83;1.63;;;18.50;70.70;;;;;;5052669;28;20063;-29
2023/04/25 03:13:30;;;;;;;3.58;1.67;;;;;;;;;;5052146;28;20055;-29
2023/04/25 03:15:57;;;;;;;3.97;1.70;;;;;;;;;;5052309;28;20540;-29
2023/04/25 03:18:24;;;;;;;3.35;1.80;;;19.20;71.30;;;;;;5052311;28;20045;-29
2023/04/25 03:20:51;;;;;;;3.40;1.67;;;;;;;;;;5052229;28;20413;-31
2023/04/25 03:23:19;;;;;;;3.22;1.80;;;18.50;70.90;;;;;;5052102;28;20063;-29
2023/04/25 03:25:45;;;;;;;4.10;1.70;;;18.30;57.20;;;;;;5052245;28;20051;-30
2023/04/25 03:28:12;;;;;;;3.28;1.63;;;17.80;71.00;;;;;;5051907;28;20049;-29
2023/04/25 03:30:39;;;;;;;3.83;1.70;;;;;;;;;;5052043;28;20049;-30
2023/04/25 03:33:06;;;;;;;4.22;1.60;;;;;;;;;;5051743;28;20059;-29
2023/04/25 03:35:33;;;;;;;4.80;1.95;;;;;;;;;;5052010;28;20047;-31
2023/04/25 03:38:00;;;;;;;4.78;1.80;;;18.60;72.10;;;;;;5051279;28;20048;-29
2023/04/25 03:40:28;;;;;;;4.07;1.60;;;18.20;71.80;;;;;;5052378;28;20055;-29
2023/04/25 03:42:54;;;;;;;2.95;1.48;;;18.20;54.90;;;;;;5064929;28;20070;-29
2023/04/25 03:45:22;;;;;;;3.72;1.55;;;;;;;;;;5071953;28;20131;-30
2023/04/25 03:47:49;;;;;;;3.75;1.65;;;17.80;71.60;;;;;;5071814;28;20084;-29
2023/04/25 03:50:15;;;;;;;3.53;1.73;;;18.30;59.00;;;;;;5071737;28;20101;-29
2023/04/25 03:52:42;;;;;;;2.83;1.65;;;;;;;;;;5071614;28;20050;-29
2023/04/25 03:55:09;;;;;;;2.90;1.42;;;17.90;71.20;;;;;;5071979;28;20055;-29
2023/04/25 03:57:37;;;;;;;4.63;1.80;;;18.60;61.50;;;;;;5052481;28;20051;-29
2023/04/25 04:00:06;;;;;;;3.45;1.40;;;18.30;71.50;;;;;;5051252;28;20048;-29
2023/04/25 04:02:34;;;;;;;4.47;1.70;;;17.70;71.60;;;;;;5051770;28;20060;-30
2023/04/25 04:05:01;;;;;;;5.07;2.10;;;18.00;55.70;;;;;;5051693;28;20501;-29
2023/04/25 04:07:28;;;;;;;5.13;1.60;;;;;;;;;;5051432;28;20063;-29
2023/04/25 04:09:55;;;;;;;3.83;1.50;;;18.70;71.70;;;;;;5051518;28;20444;-29
2023/04/25 04:12:21;;;;;;;3.45;1.58;;;17.70;71.30;;;;;;5051439;28;20049;-29
2023/04/25 04:14:49;;;;;;;3.40;1.60;;;18.00;52.10;;;;;;5051782;28;20055;-31
2023/04/25 04:17:16;;;;;;;4.15;1.65;;;;;;;;;;5051231;28;20049;-31
2023/04/25 04:19:44;;;;;;;3.33;2.03;;;16.80;71.30;;;;;;5051449;28;20048;-29
2023/04/25 04:22:11;;;;;;;5.13;1.95;;;;;;;;;;5051417;28;20102;-32
2023/04/25 04:24:38;;;;;;;2.13;1.30;;;;;;;;;;5051636;28;20053;-29
2023/04/25 04:27:05;;;;;;;2.97;1.30;;;;;;;;;;5051538;28;20067;-30
2023/04/25 04:29:32;;;;;;;3.63;1.58;;;17.70;54.80;;;;;;5051384;28;20056;-29
2023/04/25 04:32:00;;;;;;;5.30;1.48;;;18.00;52.10;;;;;;5051305;28;20075;-30
2023/04/25 04:34:27;;;;;;;4.05;1.50;;;18.10;71.70;;;;;;5051293;28;20053;-30
2023/04/25 04:36:54;;;;;;;4.15;1.63;;;17.80;72.00;;;;;;5051000;28;20144;-30
2023/04/25 04:39:22;;;;;;;3.83;1.70;;;16.90;61.90;;;;;;5032967;28;20532;-29
2023/04/25 04:41:49;;;;;;;4.18;1.60;;;;;;;;;;5055648;28;20048;-29
2023/04/25 04:44:15;;;;;;;3.05;1.58;;;18.30;66.30;;;;;;5071259;28;20055;-30
2023/04/25 04:46:42;;;;;;;4.03;1.50;;;17.80;71.90;;;;;;5071627;28;20074;-29
2023/04/25 04:49:11;;;;;;;4.40;1.70;;;17.90;52.00;;;;;;5071472;28;20097;-31
2023/04/25 04:51:38;;;;;;;5.88;1.60;;;;;;;;;;5071367;28;20052;-30
2023/04/25 04:54:05;;;;;;;4.03;1.70;;;;;;;;;;5052194;28;20049;-29
2023/04/25 04:56:31;;;;;;;4.43;1.70;;;17.70;52.00;;;;;;5051292;28;20409;-30
2023/04/25 04:58:59;;;;;;;2.65;1.55;;;17.70;63.70;;;;;;5051021;28;20405;-29
2023/04/25 05:01:26;;;;;;;3.70;1.70;;;18.10;63.70;;;;;;5051059;28;20049;-29
2023/04/25 05:03:53;;;;;;;3.13;1.50;;;18.10;71.50;;;;;;5050983;28;20059;-29
2023/04/25 05:06:21;;;;;;;3.00;1.30;;;17.90;52.10;;;;;;5051115;28;20049;-29
2023/04/25 05:08:48;;;;;;;5.53;1.60;;;;;;;;;;5051173;28;20512;-30
2023/04/25 05:11:15;;;;;;;3.30;2.00;;;17.80;61.30;;;;;;5051327;28;20053;-29
2023/04/25 05:13:42;;;;;;;4.15;1.60;;;;;;;;;;5054520;28;20076;-30
2023/04/25 05:16:09;;;;;;;3.05;1.40;;;18.90;72.40;;;;;;5054955;28;20131;-29
2023/04/25 05:18:36;;;;;;;3.92;1.50;;;17.60;71.80;;;;;;5054228;28;20053;-29
2023/04/25 05:21:02;;;;;;;3.50;1.40;;;17.50;66.20;;;;;;5054513;28;20076;-29
2023/04/25 05:23:31;;;;;;;5.05;1.70;;;18.00;71.60;;;;;;5054442;28;20114;-29
2023/04/25 05:25:58;;;;;;;3.80;1.60;;;18.00;72.00;;;;;;5054709;28;20059;-30
2023/04/25 05:28:25;;;;;;;5.28;1.67;;;;;;;;;;5060304;28;20040;-31
2023/04/25 05:30:52;;;;;;;2.83;1.48;;;17.60;71.80;;;;;;5074757;28;20058;-29
2023/04/25 05:33:19;;;;;;;3.67;1.40;;;;;;;;;;5048464;28;20057;-30
2023/04/25 05:35:45;;;;;;;3.42;1.50;;;17.10;71.60;;;;;;5054441;28;20056;-29
2023/04/25 05:38:12;;;;;;;3.88;1.70;;;18.00;71.80;;;;;;5053841;28;20055;-29
2023/04/25 05:40:40;;;;;;;3.65;1.48;;;17.00;51.80;;;;;;5054415;28;20493;-29
2023/04/25 05:43:07;;;;;;;2.63;1.33;;;;;;;;;;5069286;28;20189;-29
2023/04/25 05:45:34;;;;;;;3.13;1.40;;;17.70;71.70;;;;;;5073948;28;20044;-29
2023/04/25 05:48:01;;;;;;;3.60;1.50;;;17.50;71.90;;;;;;5056280;28;20051;-29
2023/04/25 05:50:28;;;;;;;4.85;1.63;;;;;;;;;;5054132;28;20528;-28
2023/04/25 05:52:55;;;;;;;2.55;1.30;;;;;;;;;;5036127;28;20053;-29
2023/04/25 05:55:21;;;;;;;3.55;1.65;;;17.70;65.60;;;;;;5054232;28;20059;-29
2023/04/25 05:57:49;;;;;;;3.47;1.70;;;17.70;60.10;;;;;;5053360;28;20045;-29
2023/04/25 06:00:17;;;;;;;3.28;1.42;;;17.30;71.80;;;;;;5053606;28;20553;-29
2023/04/25 06:02:44;;;;;;;2.83;1.60;;;;;;;;;;5053363;28;20132;-30
2023/04/25 06:05:10;;;;;;;4.13;1.58;;;17.10;71.90;;;;;;5053938;28;20048;-28
2023/04/25 06:07:37;;;;;;;2.97;1.50;;;18.50;72.80;;;;;;5053632;28;20049;-29
2023/04/25 06:10:06;;;;;;;4.20;1.60;;;17.40;52.20;;;;;;5053718;28;20581;-29
2023/04/25 06:12:33;;;;;;;3.83;1.60;;;;;;;;;;5053361;28;20052;-29
2023/04/25 06:15:01;;;;;;;2.13;1.52;;;18.00;53.80;;;;;;5053493;28;20045;-29
2023/04/25 06:17:28;;;;;;;3.05;1.33;;;;;;;;;;5053400;28;20159;-29
2023/04/25 06:19:55;;;;;;;2.97;1.20;;;;;;;;;;5053530;28;20060;-29
2023/04/25 06:22:22;;;;;;;2.60;1.40;;;;;;;;;;5053213;28;20749;-29
2023/04/25 06:24:49;;;;;;;2.72;1.30;;;18.40;58.40;;;;;;5053133;28;20486;-29
2023/04/25 06:27:16;;;;;;;3.58;1.52;;;;;;;;;;5053325;28;20068;-29
2023/04/25 06:29:43;;;;;;;3.53;1.48;;;17.70;72.00;;;;;;5053386;28;20063;-29
2023/04/25 06:32:11;;;;;;;3.53;1.60;;;17.60;52.30;;;;;;5045098;28;20049;-29
2023/04/25 06:34:38;;;;;;;3.83;1.50;;;17.60;72.20;;;;;;5039013;28;20447;-29
2023/04/25 06:37:05;;;;;;;2.05;1.30;;;;;;;;;;5047193;28;20045;-30
2023/04/25 06:39:32;;;;;;;3.78;1.60;;;17.30;58.90;;;;;;5050816;28;20037;-28
2023/04/25 06:41:58;;;;;;;4.07;1.45;;;18.40;72.30;;;;;;5054404;28;20599;-28
2023/04/25 06:44:26;;;;;;;3.38;1.48;;;18.00;64.60;;;;;;5052256;28;20059;-29
2023/04/25 06:46:52;;;;;;;3.67;1.85;;;17.80;72.20;;;;;;5052542;28;20053;-29
2023/04/25 06:49:20;;;;;;;1.88;1.30;;;17.80;55.20;;;;;;5047981;28;20051;-29
2023/04/25 06:51:47;;;;;;;2.92;1.40;;;;;;;;;;5047174;28;20739;-29
2023/04/25 06:54:14;;;;;;;2.63;1.40;;;18.00;71.90;;;;;;5051920;28;20543;-28
2023/04/25 06:56:41;;;;;;;1.65;1.00;;;;;;;;;;5042551;28;20124;-28
2023/04/25 06:59:08;;;;;;;2.88;1.20;;;17.90;58.40;;;;;;5052306;28;20055;-29
2023/04/25 07:01:35;;;;;;;2.72;1.20;;;18.20;71.30;;;;;;5050097;28;20055;-28
2023/04/25 07:04:02;;;;;;;3.10;1.30;;;;;;;;;;5051155;28;20110;-29
2023/04/25 07:06:30;;;;;;;2.35;1.23;;;18.80;57.40;;;;;;5051369;28;20375;-29
2023/04/25 07:08:58;;;;;;;5.32;1.27;;;;;;;;;;5051775;28;20386;-30
2023/04/25 07:11:24;;;;;;;3.08;1.27;;;18.70;70.90;;;;;;5052000;28;20494;-29
2023/04/25 07:13:51;;;;;;;3.03;1.45;;;19.70;62.90;;;;;;5050256;28;20052;-29
2023/04/25 07:16:18;;;;;;;2.88;1.20;;;;;;;;;;5050607;28;20056;-30
2023/04/25 07:18:45;;;;;;;2.10;1.20;;;19.00;70.70;;;;;;5051573;28;20045;-28
2023/04/25 07:21:13;;;;;;;2.05;1.23;;;18.90;55.30;;;;;;5051778;28;20053;-29
2023/04/25 07:23:41;;;;;;;1.92;1.20;;;19.10;50.90;;;;;;5051138;28;20528;-29
2023/04/25 07:26:08;;;;;;;3.47;1.38;;;;;;;;;;5040756;28;20045;-30
2023/04/25 07:28:35;;;;;;;1.88;1.08;;;18.80;69.40;;;;;;5052156;28;20045;-29
2023/04/25 07:31:02;;;;;;;1.95;1.08;;;19.10;69.50;;;;;;5036539;28;20049;-28
2023/04/25 07:33:29;;;;;;;1.35;0.90;;;19.20;65.40;;;;;;5033681;28;20478;-29
2023/04/25 07:35:55;;;;;;;2.72;1.58;;;19.30;69.70;;;;;;5031630;28;20049;-29
2023/04/25 07:38:22;;;;;;;2.85;1.13;;;19.30;69.10;;;;;;5040334;28;20542;-29
2023/04/25 07:40:50;;;;;;;3.05;1.55;;;19.90;58.40;;;;;;5051962;28;20055;-29
2023/04/25 07:43:17;;;;;;;1.65;1.05;;;19.00;63.70;;;;;;5065224;28;20048;-29
2023/04/25 07:45:44;;;;;;;1.88;1.08;;;19.20;68.90;;;;;;5065785;28;20470;-29
2023/04/25 07:48:10;;;;;;;1.88;1.00;;;20.00;57.90;;;;;;5041943;28;20045;-29
2023/04/25 07:50:37;;;;;;;1.92;1.10;;;19.60;66.50;;;;;;5049215;28;20049;-29
2023/04/25 07:53:04;;;;;;;2.08;1.10;;;19.40;68.70;;;;;;5035357;28;20056;-29
2023/04/25 07:55:31;;;;;;;3.47;1.20;;;;;;;;;;5032242;28;20562;-29
2023/04/25 07:57:59;;;;;;;2.95;1.10;;;19.40;49.90;;;;;;5020597;28;20470;-29
2023/04/25 08:00:26;;;;;;;1.98;1.00;;;20.20;68.70;;;;;;5046921;28;20055;-29
2023/04/25 08:02:52;;;;;;;3.10;1.10;;;20.00;68.90;;;;;;5051226;28;20047;-29
2023/04/25 08:05:19;;;;;;;4.18;1.20;;;;;;;;;;5051428;28;20047;-30
2023/04/25 08:07:46;;;;;;;2.78;1.15;;;20.00;68.60;;;;;;5051622;28;20050;-29
2023/04/25 08:10:13;;;;;;;3.55;1.00;;;;;;;;;;5051196;28;20072;-29
2023/04/25 08:12:40;;;;;;;2.78;1.00;;;19.90;61.30;;;;;;5051144;28;20075;-31
2023/04/25 08:15:09;;;;;;;3.90;1.10;;;19.90;68.30;;;;;;5038598;28;20045;-31
2023/04/25 08:17:36;;;;;;;1.58;1.00;;;21.00;53.20;;;;;;5031723;28;20133;-31
2023/04/25 08:20:05;;;;;;;2.20;1.00;;;20.10;67.80;;;;;;5030618;28;20080;-31
2023/04/25 08:22:33;;;;;;;2.92;1.20;;;;;;;;;;5031318;28;20050;-31
2023/04/25 08:25:00;;;;;;;3.05;1.10;;;20.50;54.40;;;;;;5031759;28;20438;-31
2023/04/25 08:27:27;;;;;;;1.90;1.20;;;20.30;67.30;;;;;;5045430;28;20136;-31
2023/04/25 08:29:53;;;;;;;2.67;1.10;;;20.70;68.10;;;;;;5041754;28;20052;-31
2023/04/25 08:32:22;;;;;;;3.63;1.20;;;20.60;49.00;;;;;;5031724;28;20053;-31
2023/04/25 08:34:49;;;;;;;2.10;1.00;;;;;;;;;;5044034;28;20045;-31
2023/04/25 08:37:16;;;;;;;2.00;1.25;;;;;;;;;;5046800;28;20139;-30
2023/04/25 08:39:42;;;;;;;1.75;0.95;;;20.80;55.80;;;;;;5051708;28;20049;-30
2023/04/25 08:42:09;;;;;;;3.42;1.27;;;20.20;67.30;;;;;;5058526;28;20044;-31
2023/04/25 08:44:37;;;;;;;1.85;1.00;;;;;;;;;;5061802;28;20049;-30
2023/04/25 08:47:04;;;;;;;2.65;1.30;;;20.30;66.80;;;;;;5053505;28;20049;-31
2023/04/25 08:49:32;;;;;;;2.25;1.00;;;20.80;48.60;;;;;;5055175;28;20049;-29
2023/04/25 08:52:00;;;;;;;2.42;1.10;;;19.90;53.80;;;;;;5055444;28;20067;-31
2023/04/25 08:54:27;;;;;;;3.17;1.20;;;;;;;;;;5051801;28;20084;-30
2023/04/25 08:56:55;;;;;;;1.88;0.85;;;21.10;67.60;;;;;;5035706;28;20052;-31
2023/04/25 08:59:22;;;;;;;3.10;1.20;;;20.70;66.50;;;;;;5034979;28;20052;-31
2023/04/25 09:01:49;;;;;;;2.67;1.10;;;21.00;48.30;;;;;;5035317;28;20429;-31
2023/04/25 09:04:16;;;;;;;4.07;1.13;;;;;;;;;;5034932;28;20048;-31
2023/04/25 09:06:45;;;;;;;2.97;1.20;;;20.70;48.00;;;;;;5035177;28;20124;-31
2023/04/25 09:09:12;;;;;;;2.28;1.10;;;21.10;66.30;;;;;;5034803;28;20085;-31
2023/04/25 09:11:38;;;;;;;5.25;1.25;;;20.70;66.20;;;;;;5035249;28;20056;-31
2023/04/25 09:14:13;;;;;;;1.88;0.85;;;21.10;48.10;;;;;;5044556;28;20044;-30
2023/04/25 09:16:59;;;;;;;2.17;0.95;;;21.40;51.90;;;;;;5051768;28;20045;-31
2023/04/25 09:19:26;;;;;;;2.20;1.30;;;21.10;48.10;;;;;;5052741;28;20045;-30
2023/04/25 09:21:56;;;;;;;1.95;1.15;;;20.70;66.50;;;;;;5054243;28;20041;-31
2023/04/25 09:24:34;;;;;;;1.73;1.00;;;21.40;66.90;;;;;;5054112;28;20051;-31
2023/04/25 09:27:02;;;;;;;2.25;1.10;;;21.20;51.30;;;;;;5054102;28;20076;-31
2023/04/25 09:29:32;;;;;;;3.70;1.10;;;21.40;66.30;;;;;;5054244;28;20509;-31
2023/04/25 09:32:19;;;;;;;1.95;1.08;;;20.90;66.20;;;;;;5052935;28;20052;-31
2023/04/25 09:34:49;;;;;;;1.75;0.93;;;21.10;48.10;;;;;;5049146;28;20045;-31
2023/04/25 09:37:20;;;;;;;1.88;0.90;;;20.40;56.70;;;;;;5050834;28;20209;-31
2023/04/25 09:39:47;;;;;;;2.22;0.93;;;20.60;66.00;;;;;;5051150;28;20508;-31
2023/04/25 09:42:14;;;;;;;1.75;0.90;;;20.70;66.10;;;;;;5051729;28;20600;-31
2023/04/25 09:44:43;;;;;;;1.42;0.88;;;21.10;48.10;;;;;;5054168;28;20059;-31
2023/04/25 09:47:11;;;;;;;2.50;0.90;;;;;;;;;;5053854;28;20056;-30
2023/04/25 09:49:40;;;;;;;2.33;1.02;;;20.70;66.80;;;;;;5053924;28;20515;-31
2023/04/25 09:52:07;;;;;;;2.47;1.10;;;21.70;54.40;;;;;;5053880;28;20118;-30
2023/04/25 09:54:35;;;;;;;1.60;0.80;;;21.10;66.60;;;;;;5054074;28;20056;-31
2023/04/25 09:57:03;;;;;;;1.27;0.85;;;21.50;66.80;;;;;;5053559;28;20049;-31
2023/04/25 09:59:31;;;;;;;2.60;1.00;;;20.70;66.20;;;;;;5054072;28;20052;-31
2023/04/25 10:01:58;;;;;;;2.22;1.00;;;20.80;66.10;;;;;;5054323;28;20124;-31
2023/04/25 10:04:26;;;;;;;1.55;0.90;;;20.90;50.60;;;;;;5053767;28;20053;-31
2023/04/25 10:06:53;;;;;;;1.40;0.90;;;;;;;;;;5040961;28;20053;-30
2023/04/25 10:09:20;;;;;;;2.40;1.10;;;21.20;66.90;;;;;;5033834;28;20056;-31
2023/04/25 10:11:48;;;;;;;1.98;1.10;;;21.10;48.10;;;;;;5041340;28;20055;-30
2023/04/25 10:14:15;;;;;;;2.90;1.17;;;;;;;;;;5052457;28;20484;-31
2023/04/25 10:16:42;;;;;;;2.05;1.00;;;20.80;66.20;;;;;;5051534;28;20048;-31
2023/04/25 10:19:09;;;;;;;3.28;1.00;;;21.30;67.20;;;;;;5052361;28;20055;-31
2023/04/25 10:21:36;;;;;;;1.55;0.98;;;;;;;;;;5052486;28;20055;-31
2023/04/25 10:24:03;;;;;;;2.28;1.00;;;20.80;63.80;;;;;;5052248;28;20045;-31
2023/04/25 10:26:30;;;;;;;4.22;1.20;;;21.20;66.50;;;;;;5051630;28;20041;-31
2023/04/25 10:28:58;;;;;;;3.10;1.13;;;20.90;48.00;;;;;;5052607;28;20397;-31
2023/04/25 10:31:25;;;;;;;2.58;1.00;;;21.30;67.10;;;;;;5052841;28;20555;-31
2023/04/25 10:33:52;;;;;;;2.10;0.90;;;;;;;;;;5053536;28;20044;-31
2023/04/25 10:36:20;;;;;;;1.33;0.85;;;21.20;67.60;;;;;;5052573;28;20045;-31
2023/04/25 10:38:48;;;;;;;2.28;1.05;;;21.50;67.40;;;;;;5053023;28;20052;-31
2023/04/25 10:41:14;;;;;;;3.05;1.27;;;20.70;48.90;;;;;;5053133;28;20133;-31
2023/04/25 10:43:41;;;;;;;2.53;1.17;;;20.40;66.90;;;;;;5053075;28;20057;-31
2023/04/25 10:46:16;;;;;;;4.75;1.25;;;20.50;48.20;;;;;;5052947;28;20047;-31
2023/04/25 10:48:47;;;;;;;1.45;0.90;;;20.70;48.30;;;;;;5053323;28;20063;-31
2023/04/25 10:51:17;;;;;;;3.90;1.20;;;20.70;66.50;;;;;;5052008;28;20055;-31
2023/04/25 10:53:44;;;;;;;2.78;1.13;;;21.20;67.30;;;;;;5050924;28;20051;-33
2023/04/25 10:56:12;;;;;;;3.10;1.10;;;20.50;66.40;;;;;;5052320;28;20051;-31
2023/04/25 10:58:43;;;;;;;1.98;1.17;;;20.30;66.70;;;;;;5052287;28;20053;-31
2023/04/25 11:01:10;;;;;;;3.20;1.27;;;20.50;66.80;;;;;;5051912;28;20045;-32
2023/04/25 11:03:41;;;;;;;2.90;1.25;;;20.60;48.40;;;;;;5051253;28;20055;-30
2023/04/25 11:06:16;;;;;;;1.77;1.10;;;20.60;66.90;;;;;;5045838;28;20053;-32
2023/04/25 11:08:48;;;;;;;5.07;1.45;;;20.80;67.10;;;;;;5049928;28;20644;-31
2023/04/25 11:11:14;;;;;;;3.80;1.27;;;20.10;66.60;;;;;;5052335;28;20072;-31
2023/04/25 11:13:41;;;;;;;2.65;1.15;;;21.40;57.40;;;;;;5051801;28;20044;-31
2023/04/25 11:16:08;;;;;;;3.05;1.30;;;20.10;66.80;;;;;;5052313;28;20393;-31
2023/04/25 11:18:35;;;;;;;3.22;1.30;;;21.20;67.80;;;;;;5051971;28;20049;-32
2023/04/25 11:21:03;;;;;;;5.03;1.15;;;19.60;55.70;;;;;;5052338;28;20045;-31
2023/04/25 11:23:30;;;;;;;3.28;1.30;;;19.80;60.90;;;;;;5050940;28;20053;-32
2023/04/25 11:25:57;;;;;;;3.85;1.45;;;;;;;;;;5052332;28;20053;-30
2023/04/25 11:28:24;;;;;;;3.35;1.25;;;19.20;66.80;;;;;;5052602;28;20048;-29
2023/04/25 11:30:51;;;;;;;3.45;1.17;;;20.50;67.20;;;;;;5052423;28;20044;-29
2023/04/25 11:33:18;;;;;;;2.47;1.10;;;;;;;;;;5052177;28;20087;-29
2023/04/25 11:35:45;;;;;;;3.28;1.10;;;20.30;66.90;;;;;;5051800;28;20056;-29
2023/04/25 11:38:13;;;;;;;3.30;1.20;;;20.40;48.60;;;;;;5051561;28;20049;-30
2023/04/25 11:40:40;;;;;;;4.25;1.27;;;;;;;;;;5051736;28;20493;-30
2023/04/25 11:43:07;;;;;;;4.22;1.25;;;21.00;66.90;;;;;;5052958;28;20421;-29
2023/04/25 11:45:33;;;;;;;2.53;1.27;;;20.10;66.60;;;;;;5034352;28;20088;-29
2023/04/25 11:48:00;;;;;;;2.78;1.05;;;;;;;;;;5044101;28;20059;-29
2023/04/25 11:50:27;;;;;;;3.72;1.30;;;20.80;51.20;;;;;;5032148;28;20128;-30
2023/04/25 11:52:57;;;;;;;2.95;1.23;;;20.40;48.40;;;;;;5051311;28;20052;-31
2023/04/25 11:55:25;;;;;;;2.03;1.20;;;20.50;67.80;;;;;;5052024;28;20055;-29
2023/04/25 11:57:52;;;;;;;3.28;1.30;;;20.80;67.50;;;;;;5051468;28;20076;-29
2023/04/25 12:00:20;;;;;;;3.17;0.90;;;20.30;48.50;;;;;;5052029;28;20090;-29
2023/04/25 12:02:47;;;;;;;2.38;1.30;;;20.50;55.60;;;;;;5051609;28;20053;-29
2023/04/25 12:05:15;;;;;;;3.30;1.20;;;21.30;68.00;;;;;;5051949;28;20051;-29
2023/04/25 12:07:42;;;;;;;2.55;1.42;;;20.20;67.30;;;;;;5051505;28;20055;-29
2023/04/25 12:10:12;;;;;;;1.75;0.90;;;19.90;51.70;;;;;;5051756;28;20052;-30
2023/04/25 12:12:42;;;;;;;2.58;1.00;;;20.20;48.70;;;;;;5052010;28;20079;-29
2023/04/25 12:15:10;;;;;;;4.10;1.20;;;20.70;55.70;;;;;;5051862;28;20052;-29
2023/04/25 12:17:37;;;;;;;3.28;1.05;;;19.00;50.90;;;;;;5051540;28;20053;-30
2023/04/25 12:20:08;;;;;;;2.25;1.13;;;20.00;67.70;;;;;;5051106;28;20045;-29
2023/04/25 12:22:36;;;;;;;2.78;1.10;;;20.80;67.50;;;;;;5055496;28;20056;-29
2023/04/25 12:25:03;;;;;;;2.45;1.27;;;20.60;67.30;;;;;;5055870;28;20048;-29
2023/04/25 12:27:31;;;;;;;1.98;1.17;;;20.80;67.80;;;;;;5055940;28;20057;-29
2023/04/25 12:30:00;;;;;;;1.90;1.15;;;19.70;66.90;;;;;;5055421;28;20128;-29
2023/04/25 12:32:27;;;;;;;1.70;1.00;;;20.20;67.50;;;;;;5055579;28;20056;-29
2023/04/25 12:34:54;;;;;;;2.05;1.10;;;;;;;;;;5055746;28;20045;-30
2023/04/25 12:37:21;;;;;;;1.98;1.00;;;20.40;60.20;;;;;;5054707;28;20053;-29
2023/04/25 12:39:48;;;;;;;2.65;1.27;;;;;;;;;;5055898;28;20133;-30
2023/04/25 12:42:15;;;;;;;4.13;1.30;;;20.00;67.20;;;;;;5062503;28;20493;-29
2023/04/25 12:44:41;;;;;;;2.08;1.00;;;20.10;67.20;;;;;;5075723;28;20048;-29
2023/04/25 12:47:09;;;;;;;2.83;1.23;;;18.70;53.90;;;;;;5075565;28;20052;-30
2023/04/25 12:49:36;;;;;;;2.65;1.10;;;19.80;51.60;;;;;;5075340;28;20056;-30
2023/04/25 12:52:03;;;;;;;1.52;1.10;;;19.80;67.00;;;;;;5062897;28;20493;-29
2023/04/25 12:54:30;;;;;;;1.98;1.10;;;21.00;68.10;;;;;;5055451;28;20051;-30
2023/04/25 12:56:57;;;;;;;3.53;1.30;;;20.00;58.70;;;;;;5055173;28;20461;-30
2023/04/25 12:59:23;;;;;;;1.67;1.10;;;20.00;67.70;;;;;;5055197;28;20049;-29
2023/04/25 13:01:50;;;;;;;3.10;1.23;;;;;;;;;;5055102;28;20053;-30
2023/04/25 13:04:20;;;;;;;2.67;1.10;;;19.20;67.60;;;;;;5054770;28;20508;-29
2023/04/25 13:06:47;;;;;;;2.55;1.52;;;19.70;67.00;;;;;;5055405;28;20045;-29
2023/04/25 13:09:15;;;;;;;2.55;1.13;;;20.20;67.70;;;;;;5054635;28;20416;-29
2023/04/25 13:11:41;;;;;;;2.30;1.05;;;20.20;67.70;;;;;;5051890;28;20052;-29